Graceland Heights, Indiana
Current Conditions -  °F | °C
As of 3:53 AM on Sunday 26 Oct 2014 (Local Time) from KMIE Reporting Station
Clear Clear  
Wind Chill: 45°   Ceiling: Unl
Heat Index: 49°   Visibility: 10mi
Dew Point: 33°   Wind: 8mph
Humidity: 54%   Direction: 290°WNW
Pressure: 29.97"   Gusts: NA
Location:  39.9342°N, 85.1531°W
Report Text: KMIE 260753Z AUTO 29007KT 10SM CLR 09/01 A2997 RMK AO2 SLP140 T00940006
Loading
Personal Weather Stations






























Interactive Weather Map
Tropical Storm Tracking
New forecast layout! Learn more

10-Day Weather Forecast

Advertisements
Track Severe Weather on mobile